sensor_id;sensor_type;location;lat;lon;timestamp;P1;durP1;ratioP1;P2;durP2;ratioP2
13445;SDS011;6795;51.232;3.764;2023-02-15T00:01:17;359.37;;;146.07;;
13445;SDS011;6795;51.232;3.764;2023-02-15T00:03:48;663.37;;;183.77;;
13445;SDS011;6795;51.232;3.764;2023-02-15T00:06:17;415.63;;;156.00;;
13445;SDS011;6795;51.232;3.764;2023-02-15T00:08:46;1036.83;;;216.83;;
13445;SDS011;6795;51.232;3.764;2023-02-15T00:11:15;769.43;;;196.23;;
13445;SDS011;6795;51.232;3.764;2023-02-15T00:14:05;438.50;;;150.67;;
13445;SDS011;6795;51.232;3.764;2023-02-15T00:16:34;412.00;;;146.70;;
13445;SDS011;6795;51.232;3.764;2023-02-15T00:19:05;567.40;;;164.47;;
13445;SDS011;6795;51.232;3.764;2023-02-15T00:21:34;341.77;;;142.00;;
13445;SDS011;6795;51.232;3.764;2023-02-15T00:24:04;398.67;;;151.67;;
13445;SDS011;6795;51.232;3.764;2023-02-15T00:26:34;507.17;;;156.70;;
13445;SDS011;6795;51.232;3.764;2023-02-15T00:29:03;395.87;;;153.30;;
13445;SDS011;6795;51.232;3.764;2023-02-15T00:31:32;526.40;;;166.53;;
13445;SDS011;6795;51.232;3.764;2023-02-15T00:34:01;1988.03;;;322.13;;
13445;SDS011;6795;51.232;3.764;2023-02-15T00:36:32;225.87;;;121.87;;
13445;SDS011;6795;51.232;3.764;2023-02-15T00:39:00;244.07;;;126.37;;
13445;SDS011;6795;51.232;3.764;2023-02-15T00:41:29;241.43;;;119.40;;
13445;SDS011;6795;51.232;3.764;2023-02-15T00:43:58;321.53;;;142.17;;
13445;SDS011;6795;51.232;3.764;2023-02-15T00:46:27;253.03;;;122.10;;
13445;SDS011;6795;51.232;3.764;2023-02-15T00:48:56;213.27;;;110.67;;
13445;SDS011;6795;51.232;3.764;2023-02-15T00:51:24;186.83;;;102.97;;
13445;SDS011;6795;51.232;3.764;2023-02-15T00:53:55;174.63;;;99.70;;
13445;SDS011;6795;51.232;3.764;2023-02-15T00:56:24;178.73;;;101.20;;
13445;SDS011;6795;51.232;3.764;2023-02-15T00:58:54;200.93;;;106.83;;
13445;SDS011;6795;51.232;3.764;2023-02-15T01:01:23;204.43;;;110.93;;
13445;SDS011;6795;51.232;3.764;2023-02-15T01:03:52;293.77;;;123.57;;
13445;SDS011;6795;51.232;3.764;2023-02-15T01:06:20;219.57;;;113.43;;
13445;SDS011;6795;51.232;3.764;2023-02-15T01:08:49;203.03;;;110.40;;
13445;SDS011;6795;51.232;3.764;2023-02-15T01:11:19;229.53;;;113.03;;
13445;SDS011;6795;51.232;3.764;2023-02-15T01:13:50;212.60;;;111.70;;
13445;SDS011;6795;51.232;3.764;2023-02-15T01:16:19;213.70;;;110.60;;
13445;SDS011;6795;51.232;3.764;2023-02-15T01:18:48;274.23;;;122.60;;
13445;SDS011;6795;51.232;3.764;2023-02-15T01:21:17;220.23;;;113.60;;
13445;SDS011;6795;51.232;3.764;2023-02-15T01:23:48;185.27;;;107.17;;
13445;SDS011;6795;51.232;3.764;2023-02-15T01:29:05;208.10;;;113.10;;
13445;SDS011;6795;51.232;3.764;2023-02-15T01:31:33;232.90;;;116.77;;
13445;SDS011;6795;51.232;3.764;2023-02-15T01:34:02;237.20;;;118.07;;
13445;SDS011;6795;51.232;3.764;2023-02-15T01:36:30;259.47;;;119.53;;
13445;SDS011;6795;51.232;3.764;2023-02-15T01:39:02;555.37;;;159.63;;
13445;SDS011;6795;51.232;3.764;2023-02-15T01:41:30;428.87;;;136.53;;
13445;SDS011;6795;51.232;3.764;2023-02-15T01:44:01;214.37;;;108.33;;
13445;SDS011;6795;51.232;3.764;2023-02-15T01:46:31;1033.43;;;210.67;;
13445;SDS011;6795;51.232;3.764;2023-02-15T01:49:07;266.03;;;120.37;;
13445;SDS011;6795;51.232;3.764;2023-02-15T01:51:39;807.10;;;170.67;;
13445;SDS011;6795;51.232;3.764;2023-02-15T01:54:11;432.90;;;137.27;;
13445;SDS011;6795;51.232;3.764;2023-02-15T01:56:55;249.80;;;120.27;;
13445;SDS011;6795;51.232;3.764;2023-02-15T01:59:30;283.73;;;124.47;;
13445;SDS011;6795;51.232;3.764;2023-02-15T02:02:02;264.83;;;124.67;;
13445;SDS011;6795;51.232;3.764;2023-02-15T02:04:37;318.97;;;133.43;;
13445;SDS011;6795;51.232;3.764;2023-02-15T02:07:12;325.70;;;133.87;;
13445;SDS011;6795;51.232;3.764;2023-02-15T02:09:42;284.90;;;125.47;;
13445;SDS011;6795;51.232;3.764;2023-02-15T02:12:12;281.03;;;126.00;;
13445;SDS011;6795;51.232;3.764;2023-02-15T02:14:43;404.53;;;148.47;;
13445;SDS011;6795;51.232;3.764;2023-02-15T02:17:15;618.87;;;172.20;;
13445;SDS011;6795;51.232;3.764;2023-02-15T02:19:56;353.90;;;138.00;;
13445;SDS011;6795;51.232;3.764;2023-02-15T02:22:53;579.77;;;162.00;;
13445;SDS011;6795;51.232;3.764;2023-02-15T02:29:21;887.87;;;202.70;;
13445;SDS011;6795;51.232;3.764;2023-02-15T02:35:22;833.23;;;205.80;;
13445;SDS011;6795;51.232;3.764;2023-02-15T02:37:58;325.47;;;139.27;;
13445;SDS011;6795;51.232;3.764;2023-02-15T02:40:41;328.47;;;135.70;;
13445;SDS011;6795;51.232;3.764;2023-02-15T02:43:18;368.33;;;140.37;;
13445;SDS011;6795;51.232;3.764;2023-02-15T02:45:56;721.87;;;176.00;;
13445;SDS011;6795;51.232;3.764;2023-02-15T02:48:29;342.63;;;136.23;;
13445;SDS011;6795;51.232;3.764;2023-02-15T02:51:01;288.27;;;130.47;;
13445;SDS011;6795;51.232;3.764;2023-02-15T02:53:30;285.60;;;127.63;;
13445;SDS011;6795;51.232;3.764;2023-02-15T02:56:02;279.00;;;131.80;;
13445;SDS011;6795;51.232;3.764;2023-02-15T02:58:39;495.67;;;157.17;;
13445;SDS011;6795;51.232;3.764;2023-02-15T03:01:17;1425.13;;;263.40;;
13445;SDS011;6795;51.232;3.764;2023-02-15T03:03:52;548.87;;;170.20;;
13445;SDS011;6795;51.232;3.764;2023-02-15T03:06:29;330.37;;;142.43;;
13445;SDS011;6795;51.232;3.764;2023-02-15T03:09:05;364.63;;;148.83;;
13445;SDS011;6795;51.232;3.764;2023-02-15T03:11:41;403.27;;;150.90;;
13445;SDS011;6795;51.232;3.764;2023-02-15T03:14:12;512.60;;;174.10;;
13445;SDS011;6795;51.232;3.764;2023-02-15T03:16:42;304.03;;;139.80;;
13445;SDS011;6795;51.232;3.764;2023-02-15T03:19:14;306.27;;;142.33;;
13445;SDS011;6795;51.232;3.764;2023-02-15T03:21:50;299.90;;;141.07;;
13445;SDS011;6795;51.232;3.764;2023-02-15T03:24:32;281.30;;;135.57;;
13445;SDS011;6795;51.232;3.764;2023-02-15T03:27:02;307.57;;;143.07;;
13445;SDS011;6795;51.232;3.764;2023-02-15T03:29:35;312.90;;;143.90;;
13445;SDS011;6795;51.232;3.764;2023-02-15T03:32:07;300.53;;;140.93;;
13445;SDS011;6795;51.232;3.764;2023-02-15T03:34:38;325.00;;;142.47;;
13445;SDS011;6795;51.232;3.764;2023-02-15T03:37:10;302.10;;;137.10;;
13445;SDS011;6795;51.232;3.764;2023-02-15T03:39:44;316.97;;;138.33;;
13445;SDS011;6795;51.232;3.764;2023-02-15T03:42:19;261.43;;;124.50;;
13445;SDS011;6795;51.232;3.764;2023-02-15T03:44:54;252.13;;;125.50;;
13445;SDS011;6795;51.232;3.764;2023-02-15T03:47:26;270.20;;;129.83;;
13445;SDS011;6795;51.232;3.764;2023-02-15T03:49:59;267.10;;;129.10;;
13445;SDS011;6795;51.232;3.764;2023-02-15T03:52:52;245.83;;;118.60;;
13445;SDS011;6795;51.232;3.764;2023-02-15T03:55:22;251.60;;;124.17;;
13445;SDS011;6795;51.232;3.764;2023-02-15T03:57:52;226.43;;;115.10;;
13445;SDS011;6795;51.232;3.764;2023-02-15T04:00:39;232.60;;;113.93;;
13445;SDS011;6795;51.232;3.764;2023-02-15T04:03:36;221.93;;;111.33;;
13445;SDS011;6795;51.232;3.764;2023-02-15T04:06:09;249.47;;;123.67;;
13445;SDS011;6795;51.232;3.764;2023-02-15T04:08:38;266.40;;;130.57;;
13445;SDS011;6795;51.232;3.764;2023-02-15T04:11:21;260.37;;;127.77;;
13445;SDS011;6795;51.232;3.764;2023-02-15T04:13:49;278.00;;;132.50;;
13445;SDS011;6795;51.232;3.764;2023-02-15T04:16:22;265.17;;;127.43;;
13445;SDS011;6795;51.232;3.764;2023-02-15T04:18:50;240.97;;;122.60;;
13445;SDS011;6795;51.232;3.764;2023-02-15T04:21:36;252.70;;;125.73;;
13445;SDS011;6795;51.232;3.764;2023-02-15T04:24:24;238.50;;;120.17;;
13445;SDS011;6795;51.232;3.764;2023-02-15T04:27:11;210.17;;;110.10;;
13445;SDS011;6795;51.232;3.764;2023-02-15T04:29:41;195.27;;;106.43;;
13445;SDS011;6795;51.232;3.764;2023-02-15T04:32:09;194.77;;;105.63;;
13445;SDS011;6795;51.232;3.764;2023-02-15T04:34:37;239.17;;;115.40;;
13445;SDS011;6795;51.232;3.764;2023-02-15T04:37:06;212.73;;;107.90;;
13445;SDS011;6795;51.232;3.764;2023-02-15T04:39:36;225.90;;;112.13;;
13445;SDS011;6795;51.232;3.764;2023-02-15T04:42:04;218.43;;;110.23;;
13445;SDS011;6795;51.232;3.764;2023-02-15T04:44:33;277.07;;;129.57;;
13445;SDS011;6795;51.232;3.764;2023-02-15T04:47:01;254.07;;;127.90;;
13445;SDS011;6795;51.232;3.764;2023-02-15T04:49:30;298.87;;;137.77;;
13445;SDS011;6795;51.232;3.764;2023-02-15T04:51:58;237.67;;;117.70;;
13445;SDS011;6795;51.232;3.764;2023-02-15T04:54:27;288.40;;;136.87;;
13445;SDS011;6795;51.232;3.764;2023-02-15T04:56:56;293.73;;;134.80;;
13445;SDS011;6795;51.232;3.764;2023-02-15T04:59:25;297.40;;;138.90;;
13445;SDS011;6795;51.232;3.764;2023-02-15T05:01:54;338.30;;;149.83;;
13445;SDS011;6795;51.232;3.764;2023-02-15T05:04:22;300.17;;;139.13;;
13445;SDS011;6795;51.232;3.764;2023-02-15T05:06:51;297.87;;;135.27;;
13445;SDS011;6795;51.232;3.764;2023-02-15T05:09:20;304.20;;;142.40;;
13445;SDS011;6795;51.232;3.764;2023-02-15T05:11:48;321.43;;;144.90;;
13445;SDS011;6795;51.232;3.764;2023-02-15T05:14:18;330.70;;;145.63;;
13445;SDS011;6795;51.232;3.764;2023-02-15T05:16:47;327.53;;;149.50;;
13445;SDS011;6795;51.232;3.764;2023-02-15T05:19:15;349.80;;;152.33;;
13445;SDS011;6795;51.232;3.764;2023-02-15T05:21:44;378.70;;;162.63;;
13445;SDS011;6795;51.232;3.764;2023-02-15T05:24:12;419.53;;;186.57;;
13445;SDS011;6795;51.232;3.764;2023-02-15T05:27:07;429.47;;;189.33;;
13445;SDS011;6795;51.232;3.764;2023-02-15T05:29:56;480.87;;;201.63;;
13445;SDS011;6795;51.232;3.764;2023-02-15T05:32:25;481.87;;;206.03;;
13445;SDS011;6795;51.232;3.764;2023-02-15T05:34:54;522.67;;;225.27;;
13445;SDS011;6795;51.232;3.764;2023-02-15T05:37:22;526.40;;;231.00;;
13445;SDS011;6795;51.232;3.764;2023-02-15T05:39:51;536.47;;;229.93;;
13445;SDS011;6795;51.232;3.764;2023-02-15T05:42:19;500.83;;;218.73;;
13445;SDS011;6795;51.232;3.764;2023-02-15T05:44:48;441.53;;;198.40;;
13445;SDS011;6795;51.232;3.764;2023-02-15T05:47:18;512.43;;;221.60;;
13445;SDS011;6795;51.232;3.764;2023-02-15T05:49:46;498.27;;;216.97;;
13445;SDS011;6795;51.232;3.764;2023-02-15T05:52:15;530.90;;;222.40;;
13445;SDS011;6795;51.232;3.764;2023-02-15T05:54:43;722.97;;;257.47;;
13445;SDS011;6795;51.232;3.764;2023-02-15T05:57:11;612.60;;;248.10;;
13445;SDS011;6795;51.232;3.764;2023-02-15T05:59:40;526.87;;;229.37;;
13445;SDS011;6795;51.232;3.764;2023-02-15T06:02:08;510.67;;;226.97;;
13445;SDS011;6795;51.232;3.764;2023-02-15T06:04:39;508.43;;;223.10;;
13445;SDS011;6795;51.232;3.764;2023-02-15T06:07:07;498.07;;;225.23;;
13445;SDS011;6795;51.232;3.764;2023-02-15T06:09:38;496.57;;;219.40;;
13445;SDS011;6795;51.232;3.764;2023-02-15T06:12:06;504.97;;;220.83;;
13445;SDS011;6795;51.232;3.764;2023-02-15T06:14:35;498.83;;;221.23;;
13445;SDS011;6795;51.232;3.764;2023-02-15T06:17:03;510.43;;;226.93;;
13445;SDS011;6795;51.232;3.764;2023-02-15T06:19:32;472.33;;;212.10;;
13445;SDS011;6795;51.232;3.764;2023-02-15T06:22:02;441.73;;;203.27;;
13445;SDS011;6795;51.232;3.764;2023-02-15T06:24:32;469.93;;;213.47;;
13445;SDS011;6795;51.232;3.764;2023-02-15T06:27:01;471.87;;;214.17;;
13445;SDS011;6795;51.232;3.764;2023-02-15T06:29:29;481.77;;;214.30;;
13445;SDS011;6795;51.232;3.764;2023-02-15T06:31:57;494.20;;;217.30;;
13445;SDS011;6795;51.232;3.764;2023-02-15T06:34:27;526.17;;;225.63;;
13445;SDS011;6795;51.232;3.764;2023-02-15T06:36:55;512.37;;;225.17;;
13445;SDS011;6795;51.232;3.764;2023-02-15T06:39:25;534.00;;;227.63;;
13445;SDS011;6795;51.232;3.764;2023-02-15T06:41:54;549.00;;;229.20;;
13445;SDS011;6795;51.232;3.764;2023-02-15T06:44:22;531.90;;;229.00;;
13445;SDS011;6795;51.232;3.764;2023-02-15T06:46:50;547.43;;;230.73;;
13445;SDS011;6795;51.232;3.764;2023-02-15T06:49:19;526.70;;;228.13;;
13445;SDS011;6795;51.232;3.764;2023-02-15T06:51:47;536.00;;;231.23;;
13445;SDS011;6795;51.232;3.764;2023-02-15T06:54:16;516.13;;;229.40;;
13445;SDS011;6795;51.232;3.764;2023-02-15T06:56:46;566.80;;;240.37;;
13445;SDS011;6795;51.232;3.764;2023-02-15T06:59:14;561.57;;;235.63;;
13445;SDS011;6795;51.232;3.764;2023-02-15T07:01:43;554.50;;;240.83;;
13445;SDS011;6795;51.232;3.764;2023-02-15T07:04:11;540.60;;;241.50;;
13445;SDS011;6795;51.232;3.764;2023-02-15T07:06:40;586.83;;;251.27;;
13445;SDS011;6795;51.232;3.764;2023-02-15T07:09:08;567.17;;;252.57;;
13445;SDS011;6795;51.232;3.764;2023-02-15T07:11:37;578.77;;;254.90;;
13445;SDS011;6795;51.232;3.764;2023-02-15T07:14:25;609.03;;;260.57;;
13445;SDS011;6795;51.232;3.764;2023-02-15T07:16:54;563.40;;;249.40;;
13445;SDS011;6795;51.232;3.764;2023-02-15T07:19:22;522.37;;;234.60;;
13445;SDS011;6795;51.232;3.764;2023-02-15T07:21:51;545.30;;;249.57;;
13445;SDS011;6795;51.232;3.764;2023-02-15T07:24:19;571.27;;;248.33;;
13445;SDS011;6795;51.232;3.764;2023-02-15T07:26:48;579.10;;;253.57;;
13445;SDS011;6795;51.232;3.764;2023-02-15T07:29:16;556.90;;;245.00;;
13445;SDS011;6795;51.232;3.764;2023-02-15T07:31:46;555.23;;;243.53;;
13445;SDS011;6795;51.232;3.764;2023-02-15T07:34:15;554.10;;;243.07;;
13445;SDS011;6795;51.232;3.764;2023-02-15T07:36:43;567.53;;;252.97;;
13445;SDS011;6795;51.232;3.764;2023-02-15T07:39:12;581.83;;;264.37;;
13445;SDS011;6795;51.232;3.764;2023-02-15T07:41:40;585.70;;;263.60;;
13445;SDS011;6795;51.232;3.764;2023-02-15T07:44:10;586.20;;;270.80;;
13445;SDS011;6795;51.232;3.764;2023-02-15T07:46:40;615.03;;;275.10;;
13445;SDS011;6795;51.232;3.764;2023-02-15T07:49:11;622.73;;;277.47;;
13445;SDS011;6795;51.232;3.764;2023-02-15T07:51:39;571.43;;;265.07;;
13445;SDS011;6795;51.232;3.764;2023-02-15T07:54:08;581.73;;;266.20;;
13445;SDS011;6795;51.232;3.764;2023-02-15T07:56:36;579.40;;;263.47;;
13445;SDS011;6795;51.232;3.764;2023-02-15T07:59:04;598.53;;;268.87;;
13445;SDS011;6795;51.232;3.764;2023-02-15T08:01:35;572.27;;;262.80;;
13445;SDS011;6795;51.232;3.764;2023-02-15T08:04:05;549.40;;;259.50;;
13445;SDS011;6795;51.232;3.764;2023-02-15T08:06:37;532.10;;;255.13;;
13445;SDS011;6795;51.232;3.764;2023-02-15T08:09:06;523.27;;;252.93;;
13445;SDS011;6795;51.232;3.764;2023-02-15T08:11:36;521.83;;;247.83;;
13445;SDS011;6795;51.232;3.764;2023-02-15T08:14:07;508.33;;;244.87;;
13445;SDS011;6795;51.232;3.764;2023-02-15T08:16:37;499.30;;;240.20;;
13445;SDS011;6795;51.232;3.764;2023-02-15T08:19:07;521.30;;;241.80;;
13445;SDS011;6795;51.232;3.764;2023-02-15T08:21:39;511.87;;;242.70;;
13445;SDS011;6795;51.232;3.764;2023-02-15T08:24:09;505.03;;;242.67;;
13445;SDS011;6795;51.232;3.764;2023-02-15T08:26:41;522.60;;;247.00;;
13445;SDS011;6795;51.232;3.764;2023-02-15T08:29:11;523.73;;;241.67;;
13445;SDS011;6795;51.232;3.764;2023-02-15T08:31:40;521.77;;;245.43;;
13445;SDS011;6795;51.232;3.764;2023-02-15T08:34:09;526.80;;;235.77;;
13445;SDS011;6795;51.232;3.764;2023-02-15T08:36:40;496.37;;;228.73;;
13445;SDS011;6795;51.232;3.764;2023-02-15T08:39:08;518.27;;;243.33;;
13445;SDS011;6795;51.232;3.764;2023-02-15T08:41:37;501.75;;;226.93;;
13445;SDS011;6795;51.232;3.764;2023-02-15T08:44:07;502.70;;;229.47;;
13445;SDS011;6795;51.232;3.764;2023-02-15T08:46:37;486.10;;;220.20;;
13445;SDS011;6795;51.232;3.764;2023-02-15T08:49:08;540.55;;;209.35;;
13445;SDS011;6795;51.232;3.764;2023-02-15T08:51:37;544.90;;;212.30;;
13445;SDS011;6795;51.232;3.764;2023-02-15T08:54:08;551.88;;;208.48;;
13445;SDS011;6795;51.232;3.764;2023-02-15T08:56:38;559.90;;;212.90;;
13445;SDS011;6795;51.232;3.764;2023-02-15T08:59:11;529.45;;;213.32;;
13445;SDS011;6795;51.232;3.764;2023-02-15T09:01:43;598.22;;;200.00;;
13445;SDS011;6795;51.232;3.764;2023-02-15T09:04:12;568.97;;;194.53;;
13445;SDS011;6795;51.232;3.764;2023-02-15T09:09:32;598.15;;;191.18;;
13445;SDS011;6795;51.232;3.764;2023-02-15T09:12:00;586.08;;;200.55;;
13445;SDS011;6795;51.232;3.764;2023-02-15T09:14:29;560.30;;;197.27;;
13445;SDS011;6795;51.232;3.764;2023-02-15T09:16:57;546.20;;;186.13;;
13445;SDS011;6795;51.232;3.764;2023-02-15T09:19:26;547.92;;;187.63;;
13445;SDS011;6795;51.232;3.764;2023-02-15T09:21:55;539.28;;;182.18;;
13445;SDS011;6795;51.232;3.764;2023-02-15T09:24:26;538.60;;;175.65;;
13445;SDS011;6795;51.232;3.764;2023-02-15T09:26:54;508.92;;;172.50;;
13445;SDS011;6795;51.232;3.764;2023-02-15T09:29:23;511.70;;;170.23;;
13445;SDS011;6795;51.232;3.764;2023-02-15T09:31:51;488.52;;;162.02;;
13445;SDS011;6795;51.232;3.764;2023-02-15T09:34:20;497.98;;;164.00;;
13445;SDS011;6795;51.232;3.764;2023-02-15T09:36:50;511.60;;;159.77;;
13445;SDS011;6795;51.232;3.764;2023-02-15T09:39:19;476.30;;;157.30;;
13445;SDS011;6795;51.232;3.764;2023-02-15T09:41:55;490.15;;;160.55;;
13445;SDS011;6795;51.232;3.764;2023-02-15T09:44:41;453.30;;;156.55;;
13445;SDS011;6795;51.232;3.764;2023-02-15T09:47:46;426.77;;;146.50;;
13445;SDS011;6795;51.232;3.764;2023-02-15T09:50:27;442.45;;;141.45;;
13445;SDS011;6795;51.232;3.764;2023-02-15T09:53:09;405.50;;;139.05;;
13445;SDS011;6795;51.232;3.764;2023-02-15T09:55:51;410.63;;;147.43;;
13445;SDS011;6795;51.232;3.764;2023-02-15T09:58:30;413.80;;;141.90;;
13445;SDS011;6795;51.232;3.764;2023-02-15T10:01:06;381.15;;;138.52;;
13445;SDS011;6795;51.232;3.764;2023-02-15T10:03:46;373.58;;;138.45;;
13445;SDS011;6795;51.232;3.764;2023-02-15T10:06:34;359.92;;;136.60;;
13445;SDS011;6795;51.232;3.764;2023-02-15T10:09:14;365.52;;;135.77;;
13445;SDS011;6795;51.232;3.764;2023-02-15T10:11:56;328.88;;;130.68;;
13445;SDS011;6795;51.232;3.764;2023-02-15T10:14:52;348.25;;;128.18;;
13445;SDS011;6795;51.232;3.764;2023-02-15T10:17:37;325.35;;;124.90;;
13445;SDS011;6795;51.232;3.764;2023-02-15T10:20:17;321.30;;;121.15;;
13445;SDS011;6795;51.232;3.764;2023-02-15T10:23:02;319.48;;;124.25;;
13445;SDS011;6795;51.232;3.764;2023-02-15T10:25:42;299.05;;;118.43;;
13445;SDS011;6795;51.232;3.764;2023-02-15T10:28:16;308.60;;;120.10;;
13445;SDS011;6795;51.232;3.764;2023-02-15T10:30:48;295.85;;;121.88;;
13445;SDS011;6795;51.232;3.764;2023-02-15T10:36:11;290.58;;;113.30;;
13445;SDS011;6795;51.232;3.764;2023-02-15T10:38:52;287.00;;;115.88;;
13445;SDS011;6795;51.232;3.764;2023-02-15T10:41:31;276.13;;;118.18;;
13445;SDS011;6795;51.232;3.764;2023-02-15T10:44:11;279.30;;;117.90;;
13445;SDS011;6795;51.232;3.764;2023-02-15T10:46:55;290.13;;;115.47;;
13445;SDS011;6795;51.232;3.764;2023-02-15T10:49:36;275.00;;;111.57;;
13445;SDS011;6795;51.232;3.764;2023-02-15T10:52:25;237.38;;;106.93;;
13445;SDS011;6795;51.232;3.764;2023-02-15T10:55:07;238.38;;;104.82;;
13445;SDS011;6795;51.232;3.764;2023-02-15T10:57:45;214.55;;;100.57;;
13445;SDS011;6795;51.232;3.764;2023-02-15T11:00:27;211.48;;;95.82;;
13445;SDS011;6795;51.232;3.764;2023-02-15T11:03:11;196.75;;;92.88;;
13445;SDS011;6795;51.232;3.764;2023-02-15T11:05:50;177.57;;;82.35;;
13445;SDS011;6795;51.232;3.764;2023-02-15T11:08:26;171.90;;;87.07;;
13445;SDS011;6795;51.232;3.764;2023-02-15T11:11:01;169.60;;;82.28;;
13445;SDS011;6795;51.232;3.764;2023-02-15T11:13:34;154.68;;;78.07;;
13445;SDS011;6795;51.232;3.764;2023-02-15T11:16:07;134.68;;;72.35;;
13445;SDS011;6795;51.232;3.764;2023-02-15T11:18:46;136.40;;;71.00;;
13445;SDS011;6795;51.232;3.764;2023-02-15T11:21:20;139.43;;;70.97;;
13445;SDS011;6795;51.232;3.764;2023-02-15T11:23:50;123.40;;;68.50;;
13445;SDS011;6795;51.232;3.764;2023-02-15T11:26:21;118.18;;;66.30;;
13445;SDS011;6795;51.232;3.764;2023-02-15T11:28:55;113.78;;;61.85;;
13445;SDS011;6795;51.232;3.764;2023-02-15T11:31:31;104.70;;;59.50;;
13445;SDS011;6795;51.232;3.764;2023-02-15T11:34:13;104.05;;;57.08;;
13445;SDS011;6795;51.232;3.764;2023-02-15T11:36:48;102.38;;;57.67;;
13445;SDS011;6795;51.232;3.764;2023-02-15T11:39:19;101.40;;;55.65;;
13445;SDS011;6795;51.232;3.764;2023-02-15T11:41:51;90.78;;;53.80;;
13445;SDS011;6795;51.232;3.764;2023-02-15T11:44:23;83.07;;;50.97;;
13445;SDS011;6795;51.232;3.764;2023-02-15T11:46:55;74.45;;;45.53;;
13445;SDS011;6795;51.232;3.764;2023-02-15T11:49:26;82.88;;;47.95;;
13445;SDS011;6795;51.232;3.764;2023-02-15T11:51:57;76.30;;;47.03;;
13445;SDS011;6795;51.232;3.764;2023-02-15T11:54:29;78.93;;;45.45;;
13445;SDS011;6795;51.232;3.764;2023-02-15T11:57:03;82.43;;;46.83;;
13445;SDS011;6795;51.232;3.764;2023-02-15T11:59:39;73.30;;;42.85;;
13445;SDS011;6795;51.232;3.764;2023-02-15T12:02:14;64.28;;;42.03;;
13445;SDS011;6795;51.232;3.764;2023-02-15T12:04:48;66.63;;;40.53;;
13445;SDS011;6795;51.232;3.764;2023-02-15T12:07:21;69.50;;;39.72;;
13445;SDS011;6795;51.232;3.764;2023-02-15T12:09:55;107.25;;;43.10;;
13445;SDS011;6795;51.232;3.764;2023-02-15T12:12:31;55.20;;;38.03;;
13445;SDS011;6795;51.232;3.764;2023-02-15T12:15:02;60.83;;;36.85;;
13445;SDS011;6795;51.232;3.764;2023-02-15T12:17:32;55.00;;;34.53;;
13445;SDS011;6795;51.232;3.764;2023-02-15T12:20:20;50.13;;;31.25;;
13445;SDS011;6795;51.232;3.764;2023-02-15T12:22:53;44.88;;;30.23;;
13445;SDS011;6795;51.232;3.764;2023-02-15T12:25:29;40.70;;;27.95;;
13445;SDS011;6795;51.232;3.764;2023-02-15T12:28:03;40.42;;;26.25;;
13445;SDS011;6795;51.232;3.764;2023-02-15T12:30:46;44.03;;;28.25;;
13445;SDS011;6795;51.232;3.764;2023-02-15T12:33:15;39.15;;;27.90;;
13445;SDS011;6795;51.232;3.764;2023-02-15T12:35:56;43.05;;;27.00;;
13445;SDS011;6795;51.232;3.764;2023-02-15T12:38:28;40.53;;;26.88;;
13445;SDS011;6795;51.232;3.764;2023-02-15T12:40:57;40.20;;;25.88;;
13445;SDS011;6795;51.232;3.764;2023-02-15T12:43:30;36.42;;;25.10;;
13445;SDS011;6795;51.232;3.764;2023-02-15T12:46:13;45.63;;;26.42;;
13445;SDS011;6795;51.232;3.764;2023-02-15T12:48:53;42.30;;;27.05;;
13445;SDS011;6795;51.232;3.764;2023-02-15T12:51:43;38.50;;;26.35;;
13445;SDS011;6795;51.232;3.764;2023-02-15T12:57:20;43.67;;;28.15;;
13445;SDS011;6795;51.232;3.764;2023-02-15T12:59:53;39.13;;;26.83;;
13445;SDS011;6795;51.232;3.764;2023-02-15T13:02:24;41.30;;;26.85;;
13445;SDS011;6795;51.232;3.764;2023-02-15T13:04:55;37.25;;;25.58;;
13445;SDS011;6795;51.232;3.764;2023-02-15T13:07:32;36.80;;;24.77;;
13445;SDS011;6795;51.232;3.764;2023-02-15T13:10:01;42.67;;;28.85;;
13445;SDS011;6795;51.232;3.764;2023-02-15T13:12:30;43.05;;;28.30;;
13445;SDS011;6795;51.232;3.764;2023-02-15T13:15:00;41.22;;;26.05;;
13445;SDS011;6795;51.232;3.764;2023-02-15T13:17:31;34.70;;;24.38;;
13445;SDS011;6795;51.232;3.764;2023-02-15T13:20:02;36.13;;;24.67;;
13445;SDS011;6795;51.232;3.764;2023-02-15T13:22:38;31.85;;;23.52;;
13445;SDS011;6795;51.232;3.764;2023-02-15T13:25:11;38.60;;;24.88;;
13445;SDS011;6795;51.232;3.764;2023-02-15T13:27:45;35.10;;;23.50;;
13445;SDS011;6795;51.232;3.764;2023-02-15T13:30:20;33.35;;;23.33;;
13445;SDS011;6795;51.232;3.764;2023-02-15T13:32:54;33.00;;;22.60;;
13445;SDS011;6795;51.232;3.764;2023-02-15T13:35:27;33.33;;;23.25;;
13445;SDS011;6795;51.232;3.764;2023-02-15T13:38:14;35.83;;;23.30;;
13445;SDS011;6795;51.232;3.764;2023-02-15T13:40:51;35.78;;;23.92;;
13445;SDS011;6795;51.232;3.764;2023-02-15T13:43:27;33.58;;;23.60;;
13445;SDS011;6795;51.232;3.764;2023-02-15T13:46:07;34.72;;;23.50;;
13445;SDS011;6795;51.232;3.764;2023-02-15T13:48:49;34.45;;;22.60;;
13445;SDS011;6795;51.232;3.764;2023-02-15T13:51:29;36.63;;;23.30;;
13445;SDS011;6795;51.232;3.764;2023-02-15T13:54:19;40.83;;;24.45;;
13445;SDS011;6795;51.232;3.764;2023-02-15T13:57:00;33.22;;;23.67;;
13445;SDS011;6795;51.232;3.764;2023-02-15T13:59:46;33.05;;;23.15;;
13445;SDS011;6795;51.232;3.764;2023-02-15T14:05:25;33.08;;;23.70;;
13445;SDS011;6795;51.232;3.764;2023-02-15T14:08:03;35.28;;;24.90;;
13445;SDS011;6795;51.232;3.764;2023-02-15T14:10:42;34.63;;;23.92;;
13445;SDS011;6795;51.232;3.764;2023-02-15T14:13:21;37.40;;;24.50;;
13445;SDS011;6795;51.232;3.764;2023-02-15T14:16:16;37.17;;;25.63;;
13445;SDS011;6795;51.232;3.764;2023-02-15T14:18:54;33.67;;;24.67;;
13445;SDS011;6795;51.232;3.764;2023-02-15T14:21:27;37.10;;;24.75;;
13445;SDS011;6795;51.232;3.764;2023-02-15T14:24:04;34.92;;;25.20;;
13445;SDS011;6795;51.232;3.764;2023-02-15T14:26:47;36.97;;;25.42;;
13445;SDS011;6795;51.232;3.764;2023-02-15T14:29:23;40.60;;;24.80;;
13445;SDS011;6795;51.232;3.764;2023-02-15T14:32:04;34.67;;;24.02;;
13445;SDS011;6795;51.232;3.764;2023-02-15T14:34:41;32.60;;;23.02;;
13445;SDS011;6795;51.232;3.764;2023-02-15T14:37:13;35.50;;;23.85;;
13445;SDS011;6795;51.232;3.764;2023-02-15T14:39:50;35.65;;;23.85;;
13445;SDS011;6795;51.232;3.764;2023-02-15T14:42:43;34.53;;;23.67;;
13445;SDS011;6795;51.232;3.764;2023-02-15T14:45:21;35.28;;;25.25;;
13445;SDS011;6795;51.232;3.764;2023-02-15T14:48:02;35.47;;;24.33;;
13445;SDS011;6795;51.232;3.764;2023-02-15T14:50:37;39.33;;;24.75;;
13445;SDS011;6795;51.232;3.764;2023-02-15T14:53:15;40.88;;;25.35;;
13445;SDS011;6795;51.232;3.764;2023-02-15T14:56:04;38.70;;;24.40;;
13445;SDS011;6795;51.232;3.764;2023-02-15T14:58:36;46.90;;;24.10;;
13445;SDS011;6795;51.232;3.764;2023-02-15T15:01:05;41.50;;;23.55;;
13445;SDS011;6795;51.232;3.764;2023-02-15T15:03:36;38.47;;;23.95;;
13445;SDS011;6795;51.232;3.764;2023-02-15T15:06:23;36.17;;;25.40;;
13445;SDS011;6795;51.232;3.764;2023-02-15T15:08:55;43.78;;;25.65;;
13445;SDS011;6795;51.232;3.764;2023-02-15T15:11:39;34.47;;;23.20;;
13445;SDS011;6795;51.232;3.764;2023-02-15T15:14:15;37.45;;;24.25;;